Time;durP1;ratioP1;P1;durP2;ratioP2;P2;SDS_P1;SDS_P2;PMS_P1;PMS_P2;Temp;Humidity;BMP_temperature;BMP_pressure;BME280_temperature;BME280_humidity;BME280_pressure;Samples;Min_cycle;Max_cycle;Signal;HPM_P1;HPM_P2
2022/08/02 00:01:51;;;;;;;7.95;2.65;;;14.60;99.90;;;;;;5009936;28;20400;-64
2022/08/02 00:04:16;;;;;;;9.48;3.10;;;14.60;99.90;;;;;;5009183;28;20038;-64
2022/08/02 00:06:42;;;;;;;8.27;3.38;;;14.60;99.90;;;;;;5007585;28;20092;-64
2022/08/02 00:09:08;;;;;;;5.97;2.90;;;14.60;99.90;;;;;;5004911;28;20100;-65
2022/08/02 00:11:34;;;;;;;5.75;2.72;;;14.70;99.90;;;;;;5005179;28;20481;-64
2022/08/02 00:13:59;;;;;;;5.70;2.80;;;14.60;99.90;;;;;;5008934;28;20046;-64
2022/08/02 00:16:25;;;;;;;6.22;2.78;;;14.60;99.90;;;;;;5006445;28;20038;-64
2022/08/02 00:18:51;;;;;;;5.95;2.63;;;14.60;99.90;;;;;;5011121;28;20045;-65
2022/08/02 00:21:17;;;;;;;5.32;2.70;;;14.60;99.90;;;;;;5011038;28;20037;-65
2022/08/02 00:23:42;;;;;;;6.00;3.00;;;14.60;99.90;;;;;;5003967;28;20046;-64
2022/08/02 00:26:08;;;;;;;7.40;3.10;;;14.60;99.90;;;;;;5008850;28;20038;-65
2022/08/02 00:28:34;;;;;;;7.43;3.60;;;14.60;99.90;;;;;;5008896;28;20088;-65
2022/08/02 00:30:59;;;;;;;7.53;3.70;;;14.60;99.90;;;;;;5009850;28;20045;-64
2022/08/02 00:33:25;;;;;;;9.45;3.53;;;14.60;99.90;;;;;;5009302;28;20124;-65
2022/08/02 00:35:52;;;;;;;9.57;3.53;;;14.60;99.90;;;;;;5009987;28;20056;-65
2022/08/02 00:38:17;;;;;;;8.73;3.72;;;14.60;99.90;;;;;;5003440;28;20033;-64
2022/08/02 00:40:48;;;;;;;5.53;3.50;;;14.60;99.90;;;;;;5009643;28;20443;-65
2022/08/02 00:43:13;;;;;;;10.93;4.45;;;14.60;99.90;;;;;;5009556;28;20547;-64
2022/08/02 00:45:40;;;;;;;10.13;3.95;;;14.60;99.90;;;;;;5010637;28;20042;-65
2022/08/02 00:48:08;;;;;;;10.65;4.25;;;14.60;99.90;;;;;;5009279;28;20034;-65
2022/08/02 00:50:35;;;;;;;9.60;3.83;;;14.60;99.90;;;;;;5008606;28;20054;-65
2022/08/02 00:53:01;;;;;;;10.02;4.50;;;14.50;99.90;;;;;;5009790;28;20210;-65
2022/08/02 00:55:27;;;;;;;8.20;3.85;;;14.60;99.90;;;;;;5007582;28;20052;-65
2022/08/02 00:57:53;;;;;;;9.68;4.07;;;14.50;99.90;;;;;;5008078;28;20042;-65
2022/08/02 01:00:19;;;;;;;10.48;4.10;;;14.50;99.90;;;;;;5006172;28;20122;-65
2022/08/02 01:02:45;;;;;;;10.45;3.97;;;14.50;99.90;;;;;;5003976;28;20440;-65
2022/08/02 01:05:11;;;;;;;9.82;3.83;;;14.50;99.90;;;;;;5000285;28;20046;-65
2022/08/02 01:07:37;;;;;;;9.18;3.90;;;14.50;99.90;;;;;;5002313;28;20133;-65
2022/08/02 01:10:04;;;;;;;10.18;4.03;;;14.50;99.90;;;;;;4993574;28;20500;-65
2022/08/02 01:12:30;;;;;;;8.90;3.97;;;14.40;99.90;;;;;;5010000;28;20134;-65
2022/08/02 01:14:59;;;;;;;6.15;3.67;;;14.50;99.90;;;;;;5009221;28;20050;-65
2022/08/02 01:17:49;;;;;;;9.75;4.30;;;14.40;99.90;;;;;;5005971;28;20037;-65
2022/08/02 01:20:20;;;;;;;8.57;3.60;;;14.50;99.90;;;;;;5008544;28;20049;-65
2022/08/02 01:23:10;;;;;;;6.97;3.83;;;14.50;99.90;;;;;;5008609;28;20041;-64
2022/08/02 01:25:57;;;;;;;11.60;4.38;;;14.40;99.90;;;;;;5007449;28;20077;-65
2022/08/02 01:28:40;;;;;;;6.50;3.75;;;14.40;99.90;;;;;;5012002;28;20048;-65
2022/08/02 01:31:49;;;;;;;11.23;3.90;;;14.40;99.90;;;;;;5012444;28;20048;-65
2022/08/02 01:34:26;;;;;;;11.18;4.20;;;14.40;99.90;;;;;;4984685;28;20428;-64
2022/08/02 01:36:57;;;;;;;8.88;3.67;;;14.30;99.90;;;;;;5010792;28;20081;-65
2022/08/02 01:39:26;;;;;;;10.52;3.92;;;14.30;99.90;;;;;;5009870;28;20084;-65
2022/08/02 01:41:53;;;;;;;9.57;4.40;;;14.20;99.90;;;;;;5013038;28;20132;-65
2022/08/02 01:44:21;;;;;;;8.07;3.90;;;14.30;99.90;;;;;;5012449;28;20551;-65
2022/08/02 01:46:49;;;;;;;8.10;3.97;;;14.30;99.90;;;;;;5013110;28;20066;-65
2022/08/02 01:49:19;;;;;;;6.95;4.05;;;14.20;99.90;;;;;;5012433;28;20409;-65
2022/08/02 01:54:35;;;;;;;8.52;4.15;;;14.20;99.90;;;;;;5009706;28;20505;-65
2022/08/02 01:57:04;;;;;;;9.18;4.00;;;14.20;99.90;;;;;;5011280;28;20053;-65
2022/08/02 01:59:32;;;;;;;10.27;4.25;;;14.20;99.90;;;;;;5012325;28;20440;-64
2022/08/02 02:02:00;;;;;;;10.00;4.10;;;14.20;99.90;;;;;;5010370;28;20176;-65
2022/08/02 02:04:28;;;;;;;8.50;3.88;;;14.20;99.90;;;;;;5012801;28;20038;-65
2022/08/02 02:06:55;;;;;;;8.25;4.28;;;14.20;99.90;;;;;;5012940;28;20143;-65
2022/08/02 02:09:23;;;;;;;8.77;4.15;;;14.20;99.90;;;;;;5002443;28;20052;-65
2022/08/02 02:11:49;;;;;;;8.50;4.78;;;14.10;99.90;;;;;;5012995;28;20026;-65
2022/08/02 02:14:16;;;;;;;8.32;4.45;;;14.10;99.90;;;;;;5011821;28;20088;-64
2022/08/02 02:16:45;;;;;;;12.27;4.57;;;14.10;99.90;;;;;;5006879;28;20535;-64
2022/08/02 02:19:15;;;;;;;8.43;4.60;;;14.20;99.90;;;;;;5011589;28;20097;-65
2022/08/02 02:21:41;;;;;;;7.22;4.50;;;14.10;99.90;;;;;;5012856;28;20550;-65
2022/08/02 02:24:07;;;;;;;9.63;4.95;;;14.10;99.90;;;;;;5010141;28;20034;-65
2022/08/02 02:26:34;;;;;;;9.15;4.32;;;14.10;99.90;;;;;;4997348;28;20088;-65
2022/08/02 02:29:05;;;;;;;9.35;4.53;;;14.10;99.90;;;;;;5012446;28;20046;-64
2022/08/02 02:31:35;;;;;;;7.50;4.30;;;14.10;99.90;;;;;;5012546;28;20033;-65
2022/08/02 02:34:09;;;;;;;9.05;4.50;;;14.10;99.90;;;;;;5013188;28;20100;-65
2022/08/02 02:36:38;;;;;;;10.52;4.80;;;14.10;99.90;;;;;;5011137;28;20121;-64
2022/08/02 02:39:06;;;;;;;12.38;4.32;;;14.20;99.90;;;;;;5003645;28;20226;-65
2022/08/02 02:41:32;;;;;;;9.00;4.85;;;14.20;99.90;;;;;;5012310;28;20041;-65
2022/08/02 02:44:01;;;;;;;8.35;4.82;;;14.20;99.90;;;;;;5012801;28;20037;-65
2022/08/02 02:46:30;;;;;;;8.70;4.63;;;14.10;99.90;;;;;;5005476;28;20422;-65
2022/08/02 02:48:55;;;;;;;8.93;4.72;;;14.10;99.90;;;;;;5005159;28;20454;-64
2022/08/02 02:51:22;;;;;;;12.38;5.38;;;14.10;99.90;;;;;;5010964;28;20064;-65
2022/08/02 02:53:50;;;;;;;10.05;4.72;;;14.10;99.90;;;;;;5007193;28;20121;-65
2022/08/02 02:56:17;;;;;;;10.98;4.55;;;14.20;99.90;;;;;;5011135;28;20049;-64
2022/08/02 02:58:44;;;;;;;10.25;4.95;;;14.20;99.90;;;;;;5010133;28;20471;-65
2022/08/02 03:01:29;;;;;;;11.63;5.35;;;14.10;99.90;;;;;;5010801;28;20042;-65
2022/08/02 03:03:59;;;;;;;9.90;4.88;;;14.20;99.90;;;;;;5012058;28;20404;-65
2022/08/02 03:06:24;;;;;;;11.35;4.72;;;14.10;99.90;;;;;;5007489;28;20393;-65
2022/08/02 03:08:50;;;;;;;10.70;4.38;;;14.10;99.90;;;;;;5000177;28;20046;-65
2022/08/02 03:11:16;;;;;;;7.28;4.38;;;14.10;99.90;;;;;;5012290;28;20042;-65
2022/08/02 03:13:42;;;;;;;8.45;4.88;;;14.10;99.90;;;;;;5011488;28;20046;-65
2022/08/02 03:16:10;;;;;;;8.80;5.03;;;14.10;99.90;;;;;;5010020;28;20409;-65
2022/08/02 03:18:38;;;;;;;12.15;5.10;;;14.10;99.90;;;;;;5011756;28;20096;-65
2022/08/02 03:21:10;;;;;;;12.38;5.00;;;14.00;99.90;;;;;;5009061;28;20070;-65
2022/08/02 03:23:37;;;;;;;;;;;14.00;99.90;;;;;;5012008;28;20108;-65
2022/08/02 03:26:03;;;;;;;8.98;4.45;;;14.00;99.90;;;;;;5012157;28;19945;-65
2022/08/02 03:28:29;;;;;;;9.48;4.30;;;14.00;99.90;;;;;;5011776;28;20066;-65
2022/08/02 03:30:55;;;;;;;9.15;4.93;;;14.00;99.90;;;;;;5011124;28;20049;-65
2022/08/02 03:33:24;;;;;;;8.55;4.82;;;14.00;99.90;;;;;;5008527;28;20038;-65
2022/08/02 03:35:51;;;;;;;10.02;5.13;;;14.00;99.90;;;;;;5010458;28;20042;-63
2022/08/02 03:38:18;;;;;;;13.15;4.60;;;14.00;99.90;;;;;;4998617;28;20121;-65
2022/08/02 03:40:45;;;;;;;10.40;4.68;;;13.90;99.90;;;;;;5010505;28;20489;-64
2022/08/02 03:43:11;;;;;;;13.32;4.63;;;14.00;99.90;;;;;;5011742;28;20128;-65
2022/08/02 03:45:46;;;;;;;11.10;5.15;;;14.00;99.90;;;;;;5011491;28;20049;-65
2022/08/02 03:48:14;;;;;;;10.40;5.00;;;14.00;99.90;;;;;;5009394;28;20038;-65
2022/08/02 03:50:41;;;;;;;10.82;5.25;;;13.90;99.90;;;;;;4999482;28;20237;-67
2022/08/02 03:53:07;;;;;;;11.27;5.13;;;13.90;99.90;;;;;;5009999;28;20404;-67
2022/08/02 03:55:34;;;;;;;10.25;4.80;;;13.90;99.90;;;;;;5011417;28;20041;-64
2022/08/02 03:58:00;;;;;;;9.40;4.93;;;13.90;99.90;;;;;;5009049;28;20044;-66
2022/08/02 04:00:26;;;;;;;7.88;4.70;;;13.80;99.90;;;;;;5011292;28;20127;-64
2022/08/02 04:02:52;;;;;;;12.35;4.65;;;13.70;99.90;;;;;;5010112;28;20089;-64
2022/08/02 04:05:18;;;;;;;10.07;5.07;;;13.60;99.90;;;;;;5010003;28;20038;-65
2022/08/02 04:07:45;;;;;;;10.25;4.80;;;13.70;99.90;;;;;;5010851;28;20041;-65
2022/08/02 04:10:10;;;;;;;7.32;5.22;;;13.70;99.90;;;;;;5009561;28;20048;-65
2022/08/02 04:12:37;;;;;;;6.47;4.35;;;13.80;99.90;;;;;;5010518;28;20459;-65
2022/08/02 04:15:04;;;;;;;8.52;5.07;;;13.80;99.90;;;;;;5005672;28;20047;-65
2022/08/02 04:17:32;;;;;;;8.85;4.88;;;13.80;99.90;;;;;;5006963;28;20370;-65
2022/08/02 04:20:04;;;;;;;9.88;4.85;;;13.90;99.90;;;;;;5002691;28;20493;-65
2022/08/02 04:22:36;;;;;;;12.52;5.00;;;13.90;99.90;;;;;;5002059;28;20038;-65
2022/08/02 04:25:05;;;;;;;8.60;4.72;;;13.90;99.90;;;;;;5006613;28;20038;-65
2022/08/02 04:27:35;;;;;;;9.05;4.70;;;13.90;99.90;;;;;;5006486;28;20041;-65
2022/08/02 04:30:02;;;;;;;9.02;4.65;;;14.00;99.90;;;;;;5010093;28;20038;-65
2022/08/02 04:32:28;;;;;;;8.55;4.78;;;14.00;99.90;;;;;;5008149;28;20485;-65
2022/08/02 04:34:55;;;;;;;10.48;5.10;;;14.00;99.90;;;;;;5010393;28;20073;-64
2022/08/02 04:37:21;;;;;;;9.45;4.38;;;14.00;99.90;;;;;;5010404;28;20038;-65
2022/08/02 04:39:46;;;;;;;10.75;4.95;;;14.00;99.90;;;;;;5003101;28;20048;-65
2022/08/02 04:42:23;;;;;;;8.85;5.43;;;14.00;99.90;;;;;;5005259;28;20112;-65
2022/08/02 04:44:50;;;;;;;7.47;4.63;;;14.00;99.90;;;;;;5008486;28;20485;-65
2022/08/02 04:47:16;;;;;;;8.27;4.40;;;14.00;99.90;;;;;;5009582;28;20034;-64
2022/08/02 04:49:41;;;;;;;8.70;4.70;;;14.00;99.90;;;;;;5003823;28;20510;-65
2022/08/02 04:52:07;;;;;;;9.85;4.68;;;14.10;99.90;;;;;;5003568;28;20042;-65
2022/08/02 04:54:33;;;;;;;7.93;4.85;;;14.10;99.90;;;;;;5013431;28;20496;-65
2022/08/02 04:56:58;;;;;;;8.80;5.15;;;14.10;99.90;;;;;;5009820;28;20396;-65
2022/08/02 04:59:24;;;;;;;12.40;5.00;;;14.10;99.90;;;;;;5006136;28;20034;-65
2022/08/02 05:01:50;;;;;;;8.98;4.53;;;14.10;99.90;;;;;;5006422;28;20084;-65
2022/08/02 05:04:15;;;;;;;10.30;4.45;;;14.10;99.90;;;;;;5009057;28;20034;-65
2022/08/02 05:06:41;;;;;;;11.57;5.03;;;14.10;99.90;;;;;;5010526;28;20042;-65
2022/08/02 05:09:07;;;;;;;10.93;5.03;;;14.10;99.90;;;;;;5009743;28;20554;-65
2022/08/02 05:11:32;;;;;;;12.18;4.82;;;14.10;99.90;;;;;;5009637;28;20038;-64
2022/08/02 05:13:58;;;;;;;10.20;4.75;;;14.20;99.90;;;;;;5008990;28;20399;-65
2022/08/02 05:16:25;;;;;;;10.40;4.97;;;14.20;99.90;;;;;;5001305;28;20060;-65
2022/08/02 05:18:50;;;;;;;8.95;5.25;;;14.10;99.90;;;;;;5008670;28;20121;-66
2022/08/02 05:21:16;;;;;;;8.25;4.88;;;14.20;99.90;;;;;;4997474;28;20116;-65
2022/08/02 05:23:42;;;;;;;9.93;5.45;;;14.20;99.90;;;;;;5005419;28;20038;-65
2022/08/02 05:26:07;;;;;;;9.18;4.70;;;14.20;99.90;;;;;;5008836;28;20046;-65
2022/08/02 05:28:33;;;;;;;9.25;4.72;;;14.20;99.90;;;;;;5005467;28;20067;-65
2022/08/02 05:30:59;;;;;;;11.50;5.18;;;14.20;99.90;;;;;;4997930;28;20553;-65
2022/08/02 05:33:25;;;;;;;11.18;4.80;;;14.20;99.90;;;;;;4998694;28;20585;-65
2022/08/02 05:35:50;;;;;;;10.93;5.10;;;14.30;99.90;;;;;;5010052;28;20699;-65
2022/08/02 05:38:16;;;;;;;7.28;5.03;;;14.30;99.90;;;;;;5008679;28;20077;-65
2022/08/02 05:40:42;;;;;;;8.10;4.85;;;14.30;99.90;;;;;;5008580;28;20052;-65
2022/08/02 05:43:14;;;;;;;9.48;4.85;;;14.40;99.90;;;;;;4995018;28;20043;-65
2022/08/02 05:45:40;;;;;;;;;;;14.40;99.90;;;;;;5000768;28;20042;-65
2022/08/02 05:48:07;;;;;;;10.02;4.72;;;14.40;99.90;;;;;;5008185;28;19924;-65
2022/08/02 05:50:38;;;;;;;8.80;4.40;;;14.40;99.90;;;;;;5009672;28;20400;-67
2022/08/02 05:53:16;;;;;;;10.57;4.95;;;14.40;99.90;;;;;;5010054;28;20405;-65
2022/08/02 05:55:51;;;;;;;8.15;4.65;;;14.50;99.90;;;;;;5006203;28;20046;-65
2022/08/02 05:58:28;;;;;;;11.38;5.13;;;14.50;99.90;;;;;;5003717;28;20485;-65
2022/08/02 06:00:55;;;;;;;9.70;4.70;;;14.50;99.90;;;;;;5003456;28;20069;-65
2022/08/02 06:03:24;;;;;;;8.50;5.00;;;14.60;99.90;;;;;;5003753;28;20519;-65
2022/08/02 06:05:59;;;;;;;11.10;5.35;;;14.60;99.90;;;;;;4999877;28;20049;-64
2022/08/02 06:08:32;;;;;;;8.95;5.60;;;14.70;99.90;;;;;;5030239;28;20042;-65
2022/08/02 06:11:01;;;;;;;8.48;4.65;;;14.80;99.90;;;;;;5009062;28;20037;-65
2022/08/02 06:13:28;;;;;;;10.32;4.55;;;14.80;99.90;;;;;;5001745;28;20042;-65
2022/08/02 06:15:58;;;;;;;8.20;4.85;;;14.90;99.90;;;;;;5005671;28;20065;-65
2022/08/02 06:18:26;;;;;;;10.50;4.72;;;14.90;99.90;;;;;;5004412;28;20042;-66
2022/08/02 06:20:58;;;;;;;8.73;4.53;;;15.00;99.90;;;;;;5003321;28;20045;-65
2022/08/02 06:23:25;;;;;;;9.90;4.65;;;15.00;99.90;;;;;;5012346;28;20046;-65
2022/08/02 06:25:52;;;;;;;7.30;4.55;;;15.10;99.90;;;;;;5012602;28;20064;-65
2022/08/02 06:28:19;;;;;;;8.32;4.38;;;15.20;99.90;;;;;;5005358;28;20038;-65
2022/08/02 06:30:45;;;;;;;8.50;4.03;;;15.30;99.90;;;;;;5011389;28;20103;-65
2022/08/02 06:33:12;;;;;;;8.95;4.50;;;15.30;99.90;;;;;;5010866;28;20559;-65
2022/08/02 06:36:15;;;;;;;7.20;4.18;;;15.30;99.90;;;;;;5012319;28;20089;-65
2022/08/02 06:38:48;;;;;;;15.32;4.97;;;15.40;99.90;;;;;;5007186;28;20042;-65
2022/08/02 06:41:15;;;;;;;8.38;4.72;;;15.50;99.90;;;;;;5009766;28;20396;-66
2022/08/02 06:43:54;;;;;;;10.77;4.50;;;15.50;99.90;;;;;;5011319;28;20046;-65
2022/08/02 06:46:20;;;;;;;7.47;4.20;;;15.60;99.90;;;;;;5010698;28;20049;-65
2022/08/02 06:48:46;;;;;;;9.75;4.30;;;15.60;99.90;;;;;;5011745;28;20052;-65
2022/08/02 06:51:12;;;;;;;11.32;4.85;;;15.70;99.90;;;;;;5011682;28;20121;-65
2022/08/02 06:53:38;;;;;;;9.23;4.25;;;15.70;99.90;;;;;;5010889;28;20053;-65
2022/08/02 06:56:04;;;;;;;9.85;4.38;;;15.70;99.90;;;;;;4993025;28;20041;-65
2022/08/02 06:58:30;;;;;;;6.68;4.38;;;15.80;99.90;;;;;;5010731;28;20555;-65
2022/08/02 07:00:56;;;;;;;9.70;4.45;;;15.80;99.90;;;;;;5011651;28;20080;-64
2022/08/02 07:03:24;;;;;;;11.25;4.25;;;15.90;99.90;;;;;;5010357;28;20042;-64
2022/08/02 07:05:50;;;;;;;9.32;4.28;;;16.00;99.90;;;;;;5010101;28;20184;-64
2022/08/02 07:08:16;;;;;;;9.65;4.20;;;16.00;99.90;;;;;;5010870;28;20052;-64
2022/08/02 07:10:42;;;;;;;8.45;4.10;;;16.10;99.90;;;;;;5011117;28;20041;-65
2022/08/02 07:13:08;;;;;;;8.20;3.70;;;16.20;99.90;;;;;;5011167;28;20111;-65
2022/08/02 07:15:33;;;;;;;11.15;4.55;;;16.30;99.90;;;;;;5010691;28;20341;-65
2022/08/02 07:17:59;;;;;;;6.18;3.75;;;16.40;99.90;;;;;;5010966;28;20097;-65
2022/08/02 07:20:24;;;;;;;8.55;3.80;;;16.50;99.90;;;;;;5004031;28;20114;-65
2022/08/02 07:22:50;;;;;;;7.68;3.53;;;16.60;99.90;;;;;;5007418;28;20172;-65
2022/08/02 07:25:16;;;;;;;8.65;3.90;;;16.60;99.90;;;;;;5010405;28;20045;-65
2022/08/02 07:27:42;;;;;;;8.90;3.83;;;16.70;99.90;;;;;;5011560;28;20115;-65
2022/08/02 07:30:08;;;;;;;8.48;4.05;;;16.80;99.90;;;;;;5012032;28;20046;-65
2022/08/02 07:32:34;;;;;;;8.38;3.67;;;16.80;99.90;;;;;;5010438;28;20041;-65
2022/08/02 07:35:00;;;;;;;11.25;3.88;;;16.90;99.90;;;;;;5011771;28;20045;-64
2022/08/02 07:37:28;;;;;;;7.95;3.50;;;17.00;99.90;;;;;;5009317;28;20042;-65
2022/08/02 07:39:54;;;;;;;12.35;4.00;;;17.00;99.90;;;;;;5002021;28;20088;-66
2022/08/02 07:42:20;;;;;;;9.27;3.65;;;17.10;99.90;;;;;;5011642;28;20437;-65
2022/08/02 07:44:46;;;;;;;7.55;3.97;;;17.20;99.90;;;;;;5011564;28;20029;-65
2022/08/02 07:47:12;;;;;;;10.70;4.00;;;17.20;99.90;;;;;;5012311;28;20041;-65
2022/08/02 07:49:37;;;;;;;7.75;3.92;;;17.20;99.90;;;;;;5011253;28;20037;-65
2022/08/02 07:52:03;;;;;;;7.65;3.35;;;17.30;99.90;;;;;;5010146;28;20042;-65
2022/08/02 07:54:29;;;;;;;6.68;3.88;;;17.40;99.90;;;;;;4992145;28;20117;-65
2022/08/02 07:56:55;;;;;;;5.78;3.55;;;17.50;99.90;;;;;;5008521;28;20140;-65
2022/08/02 07:59:21;;;;;;;6.93;3.30;;;17.60;99.90;;;;;;5007963;28;20104;-65
2022/08/02 08:01:48;;;;;;;8.07;3.47;;;17.70;99.90;;;;;;5007041;28;20393;-66
2022/08/02 08:04:17;;;;;;;6.78;3.05;;;17.70;99.90;;;;;;5008941;28;20038;-65
2022/08/02 08:06:42;;;;;;;7.45;3.00;;;17.80;99.90;;;;;;5009731;28;20069;-66
2022/08/02 08:09:11;;;;;;;9.45;2.75;;;17.90;99.90;;;;;;5009074;28;20065;-65
2022/08/02 08:11:37;;;;;;;5.47;2.35;;;18.10;99.90;;;;;;5004651;28;20042;-65
2022/08/02 08:14:05;;;;;;;8.13;2.67;;;18.20;99.90;;;;;;5010202;28;20493;-66
2022/08/02 08:16:31;;;;;;;6.95;3.00;;;18.20;99.90;;;;;;5009231;28;20050;-66
2022/08/02 08:18:57;;;;;;;3.85;2.30;;;18.40;99.90;;;;;;5008719;28;20029;-65
2022/08/02 08:21:23;;;;;;;7.38;3.00;;;18.50;99.90;;;;;;5005877;28;20057;-65
2022/08/02 08:23:49;;;;;;;5.82;2.40;;;18.60;99.90;;;;;;5008425;28;20095;-66
2022/08/02 08:26:15;;;;;;;5.45;2.85;;;18.70;99.90;;;;;;5010076;28;20109;-66
2022/08/02 08:28:40;;;;;;;7.38;2.63;;;18.80;99.90;;;;;;5008455;28;20560;-65
2022/08/02 08:31:06;;;;;;;7.18;2.60;;;19.00;99.90;;;;;;5010288;28;20034;-65
2022/08/02 08:33:32;;;;;;;5.45;2.78;;;19.10;99.90;;;;;;5008895;28;20168;-65
2022/08/02 08:35:58;;;;;;;8.55;2.60;;;19.20;99.90;;;;;;5008480;28;20041;-66
2022/08/02 08:38:24;;;;;;;4.65;2.25;;;19.40;99.90;;;;;;5008017;28;20197;-65
2022/08/02 08:40:50;;;;;;;5.80;2.55;;;19.60;99.90;;;;;;5011421;28;20042;-65
2022/08/02 08:43:16;;;;;;;7.70;2.20;;;19.80;99.90;;;;;;5009289;28;20408;-66
2022/08/02 08:45:45;;;;;;;5.22;2.25;;;20.10;99.90;;;;;;5009306;28;20052;-66
2022/08/02 08:48:14;;;;;;;5.20;2.10;;;20.30;99.90;;;;;;5008264;28;20056;-66
2022/08/02 08:50:54;;;;;;;13.50;2.92;;;20.50;99.90;;;;;;5005468;28;20068;-65
2022/08/02 08:53:22;;;;;;;4.78;2.60;;;20.70;99.90;;;;;;5009977;28;20061;-66
2022/08/02 08:55:51;;;;;;;7.05;2.83;;;20.90;99.90;;;;;;5010666;28;20048;-66
2022/08/02 08:58:17;;;;;;;8.27;2.45;;;21.00;99.90;;;;;;5008600;28;20045;-65
2022/08/02 09:00:43;;;;;;;8.50;2.85;;;21.20;99.90;;;;;;5006558;28;20489;-66
2022/08/02 09:03:09;;;;;;;7.93;2.60;;;21.40;99.90;;;;;;5009171;28;20042;-66
2022/08/02 09:05:36;;;;;;;4.70;2.55;;;21.60;99.90;;;;;;5003265;28;20084;-66
2022/08/02 09:08:02;;;;;;;6.40;2.58;;;21.80;99.90;;;;;;5010346;28;20037;-66
2022/08/02 09:10:41;;;;;;;4.80;2.60;;;21.90;99.90;;;;;;5010184;28;20038;-66
2022/08/02 09:13:19;;;;;;;5.35;2.60;;;22.20;99.90;;;;;;5009487;28;20455;-66
2022/08/02 09:15:52;;;;;;;6.65;2.63;;;22.30;99.90;;;;;;5007061;28;20455;-66
2022/08/02 09:18:18;;;;;;;5.65;2.63;;;22.40;99.90;;;;;;5003964;28;20046;-66
2022/08/02 09:20:58;;;;;;;3.85;2.30;;;22.60;99.90;;;;;;5006010;28;20053;-66
2022/08/02 09:23:25;;;;;;;5.15;2.60;;;22.80;99.50;;;;;;5003167;28;20096;-65
2022/08/02 09:26:12;;;;;;;4.72;2.38;;;22.90;99.90;;;;;;5010568;28;20043;-66
2022/08/02 09:28:40;;;;;;;6.20;3.08;;;23.00;97.90;;;;;;5010513;28;20185;-66
2022/08/02 09:31:14;;;;;;;5.82;3.00;;;23.10;99.30;;;;;;5009056;28;20034;-65
2022/08/02 09:33:42;;;;;;;4.72;2.95;;;23.20;99.10;;;;;;5000522;28;20042;-65
2022/08/02 09:36:12;;;;;;;7.38;3.47;;;23.20;99.10;;;;;;5005729;28;20387;-65
2022/08/02 09:38:40;;;;;;;6.10;3.25;;;23.30;99.20;;;;;;5008525;28;20042;-66
2022/08/02 09:41:20;;;;;;;6.70;3.47;;;23.50;99.20;;;;;;5005276;28;20085;-66
2022/08/02 09:43:46;;;;;;;7.07;3.23;;;23.60;99.40;;;;;;5010356;28;20084;-66
2022/08/02 09:46:17;;;;;;;6.80;3.00;;;23.80;99.10;;;;;;5007501;28;20046;-66
2022/08/02 09:48:57;;;;;;;5.72;3.60;;;23.90;98.80;;;;;;5008543;28;20049;-66
2022/08/02 09:51:28;;;;;;;6.47;3.60;;;24.00;97.60;;;;;;5009880;28;20046;-66
2022/08/02 09:53:56;;;;;;;9.20;4.10;;;24.00;98.50;;;;;;5012092;28;20057;-65
2022/08/02 09:56:24;;;;;;;6.60;3.80;;;24.10;98.10;;;;;;5011370;28;20069;-66
2022/08/02 09:58:52;;;;;;;5.40;3.55;;;24.00;98.20;;;;;;5010879;28;20045;-66
2022/08/02 10:01:20;;;;;;;9.52;4.43;;;24.00;98.20;;;;;;5009225;28;20037;-66
2022/08/02 10:03:57;;;;;;;8.68;4.03;;;24.00;97.90;;;;;;5005509;28;20034;-66
2022/08/02 10:06:22;;;;;;;5.65;3.70;;;23.90;98.20;;;;;;5011996;28;20038;-65
2022/08/02 10:08:49;;;;;;;7.03;3.78;;;24.00;98.70;;;;;;5012287;28;20126;-66
2022/08/02 10:11:16;;;;;;;6.22;3.83;;;24.10;98.50;;;;;;5013008;28;20037;-65
2022/08/02 10:13:42;;;;;;;6.53;3.33;;;24.10;98.10;;;;;;5012602;28;20045;-66
2022/08/02 10:16:08;;;;;;;5.55;3.40;;;24.10;97.80;;;;;;5005880;28;20129;-66
2022/08/02 10:18:34;;;;;;;6.22;3.53;;;24.10;97.90;;;;;;5005269;28;20037;-66
2022/08/02 10:21:01;;;;;;;5.13;3.42;;;24.10;98.30;;;;;;5012949;28;20378;-66
2022/08/02 10:23:32;;;;;;;8.10;3.17;;;24.20;98.40;;;;;;5013233;28;20057;-66
2022/08/02 10:25:59;;;;;;;6.88;3.42;;;24.40;97.50;;;;;;5012490;28;20046;-66
2022/08/02 10:28:31;;;;;;;4.38;3.10;;;24.50;97.50;;;;;;5003170;28;20092;-65
2022/08/02 10:30:59;;;;;;;4.95;3.30;;;24.60;97.20;;;;;;5010118;28;20072;-66
2022/08/02 10:33:27;;;;;;;5.18;3.40;;;24.70;96.90;;;;;;5009593;28;20112;-65
2022/08/02 10:35:56;;;;;;;5.93;3.20;;;24.80;96.80;;;;;;5012552;28;20049;-66
2022/08/02 10:38:22;;;;;;;6.70;3.60;;;24.80;96.20;;;;;;5009326;28;20026;-65
2022/08/02 10:40:49;;;;;;;10.75;3.90;;;24.90;96.10;;;;;;5005300;28;20058;-66
2022/08/02 10:43:30;;;;;;;3.92;3.22;;;24.90;96.20;;;;;;5011202;28;20037;-65
2022/08/02 10:46:25;;;;;;;5.63;3.70;;;25.00;96.00;;;;;;5010742;28;20097;-65
2022/08/02 10:49:09;;;;;;;5.55;3.17;;;25.10;95.80;;;;;;5009642;28;20072;-65
2022/08/02 10:51:56;;;;;;;9.30;3.35;;;25.10;94.80;;;;;;5001829;28;20584;-65
2022/08/02 10:54:27;;;;;;;6.43;3.55;;;25.00;95.40;;;;;;5007768;28;20108;-65
2022/08/02 10:56:55;;;;;;;5.05;2.70;;;24.90;95.80;;;;;;5011930;28;20062;-66
2022/08/02 10:59:28;;;;;;;3.75;2.40;;;25.00;95.70;;;;;;5008678;28;20578;-65
2022/08/02 11:02:02;;;;;;;5.88;2.47;;;25.00;94.80;;;;;;5006276;28;20438;-65
2022/08/02 11:04:52;;;;;;;5.40;2.10;;;25.30;94.70;;;;;;5012462;28;20049;-66
2022/08/02 11:07:29;;;;;;;4.80;2.50;;;25.30;93.80;;;;;;5010723;28;20045;-64
2022/08/02 11:09:58;;;;;;;3.78;2.00;;;25.50;93.00;;;;;;5007589;28;20049;-69
2022/08/02 11:12:24;;;;;;;4.30;2.10;;;25.60;92.30;;;;;;5012357;28;20092;-65
2022/08/02 11:15:02;;;;;;;4.00;2.00;;;25.50;91.90;;;;;;5011165;28;20041;-66
2022/08/02 11:17:51;;;;;;;3.88;2.20;;;25.40;90.90;;;;;;5003333;28;20042;-64
2022/08/02 11:20:19;;;;;;;3.28;2.20;;;25.20;90.00;;;;;;5005342;28;20046;-65
2022/08/02 11:22:48;;;;;;;4.50;2.50;;;25.20;90.70;;;;;;5007001;28;20038;-64
2022/08/02 11:25:22;;;;;;;3.05;2.30;;;25.20;91.10;;;;;;5009687;28;20041;-64
2022/08/02 11:27:51;;;;;;;3.25;1.80;;;25.30;91.60;;;;;;5010392;28;20048;-64
2022/08/02 11:30:18;;;;;;;2.95;2.05;;;25.40;91.90;;;;;;5009269;28;20044;-64
2022/08/02 11:32:44;;;;;;;2.92;2.13;;;25.50;91.50;;;;;;5000094;28;20047;-64
2022/08/02 11:35:09;;;;;;;3.45;2.33;;;25.60;91.60;;;;;;5011912;28;20033;-65
2022/08/02 11:37:39;;;;;;;2.72;2.08;;;25.60;91.50;;;;;;5011080;28;20042;-69
2022/08/02 11:40:08;;;;;;;4.60;2.53;;;25.60;92.00;;;;;;5009204;28;20116;-64
2022/08/02 11:42:35;;;;;;;6.25;3.20;;;25.60;92.20;;;;;;5012104;28;20038;-67
2022/08/02 11:45:03;;;;;;;6.05;3.30;;;25.60;92.60;;;;;;5008708;28;20040;-69
2022/08/02 11:47:30;;;;;;;4.90;3.40;;;25.70;93.10;;;;;;5003957;28;20380;-64
2022/08/02 11:50:09;;;;;;;6.22;3.55;;;25.70;93.40;;;;;;5011535;28;20038;-67
2022/08/02 11:52:35;;;;;;;7.90;4.13;;;25.80;92.80;;;;;;4998080;28;20076;-64
2022/08/02 11:55:01;;;;;;;6.18;4.00;;;25.90;93.80;;;;;;5006285;28;20046;-64
2022/08/02 11:57:27;;;;;;;5.70;4.00;;;26.00;94.50;;;;;;5011009;28;20045;-64
2022/08/02 11:59:54;;;;;;;6.85;3.88;;;26.10;94.30;;;;;;5008189;28;20049;-65
2022/08/02 12:02:27;;;;;;;6.38;3.90;;;26.10;93.60;;;;;;5007941;28;20045;-65
2022/08/02 12:04:53;;;;;;;5.13;3.55;;;26.10;92.90;;;;;;5010177;28;20052;-64
2022/08/02 12:07:26;;;;;;;4.85;3.17;;;26.20;93.10;;;;;;5009178;28;20077;-65
2022/08/02 12:09:52;;;;;;;4.10;3.30;;;26.20;93.00;;;;;;5008507;28;20225;-64
2022/08/02 12:12:17;;;;;;;4.68;2.63;;;26.20;92.10;;;;;;5009740;28;20053;-64
2022/08/02 12:14:43;;;;;;;4.22;2.95;;;26.20;92.60;;;;;;5011230;28;20053;-64
2022/08/02 12:19:53;;;;;;;3.92;2.75;;;26.30;93.30;;;;;;4994140;28;20074;-65
2022/08/02 12:22:24;;;;;;;4.43;2.45;;;26.40;93.10;;;;;;5006022;28;20084;-64
2022/08/02 12:24:56;;;;;;;3.00;2.13;;;26.30;92.40;;;;;;5009060;28;20724;-64
2022/08/02 12:27:27;;;;;;;;;;;26.20;92.50;;;;;;5007395;28;20042;-72
2022/08/02 12:30:03;;;;;;;4.35;2.55;;;26.10;92.30;;;;;;5010888;28;19917;-66
2022/08/02 12:32:29;;;;;;;4.60;3.20;;;26.10;92.00;;;;;;5010525;28;20113;-69
2022/08/02 12:35:11;;;;;;;5.40;2.78;;;26.10;92.10;;;;;;5003243;28;20125;-64
2022/08/02 12:37:39;;;;;;;3.10;2.40;;;26.00;92.80;;;;;;5003512;28;20046;-68
2022/08/02 12:40:23;;;;;;;3.25;2.60;;;26.00;92.30;;;;;;5004469;28;20088;-69
2022/08/02 12:42:52;;;;;;;5.72;2.53;;;25.80;92.30;;;;;;4992615;28;20052;-68
2022/08/02 12:45:18;;;;;;;6.00;2.75;;;25.80;92.40;;;;;;4993162;28;20045;-70
2022/08/02 12:47:47;;;;;;;4.38;2.63;;;25.60;92.40;;;;;;4974813;28;20053;-65
2022/08/02 12:50:20;;;;;;;3.63;2.80;;;25.50;92.90;;;;;;5009046;28;20038;-67
2022/08/02 12:52:50;;;;;;;3.72;2.80;;;25.40;93.40;;;;;;5008656;28;20042;-64
2022/08/02 12:55:22;;;;;;;3.60;2.90;;;25.40;93.60;;;;;;5005018;28;20038;-71
2022/08/02 12:58:05;;;;;;;4.88;3.13;;;25.30;93.90;;;;;;5009001;28;20038;-68
2022/08/02 13:00:34;;;;;;;5.32;3.15;;;25.30;93.80;;;;;;4998755;28;20042;-64